Time;durP1;ratioP1;P1;durP2;ratioP2;P2;SDS_P1;SDS_P2;PMS_P1;PMS_P2;Temp;Humidity;BMP_temperature;BMP_pressure;BME280_temperature;BME280_humidity;BME280_pressure;Samples;Min_cycle;Max_cycle;Signal;HPM_P1;HPM_P2
2023/03/26 00:00:52;;;;;;;4.97;3.30;;;;;;;;;;5042260;28;20392;-65
2023/03/26 00:03:19;;;;;;;4.93;3.50;;;;;;;;;;5051830;28;20409;-65
2023/03/26 00:05:47;;;;;;;4.47;3.20;;;;;;;;;;5039504;28;20099;-63
2023/03/26 00:08:12;;;;;;;4.68;3.03;;;;;;;;;;5030496;28;20041;-66
2023/03/26 00:10:37;;;;;;;4.75;3.45;;;;;;;;;;5038314;28;20134;-65
2023/03/26 00:13:03;;;;;;;4.40;3.33;;;;;;;;;;5029572;28;20036;-67
2023/03/26 00:15:28;;;;;;;3.78;3.30;;;;;;;;;;5032634;28;20448;-65
2023/03/26 00:17:55;;;;;;;4.57;3.20;;;;;;;;;;5060442;28;20412;-65
2023/03/26 00:20:20;;;;;;;4.43;3.53;;;;;;;;;;5048684;28;20049;-66
2023/03/26 00:22:46;;;;;;;4.38;3.33;;;;;;;;;;5052808;28;20637;-64
2023/03/26 00:25:12;;;;;;;4.22;3.15;;;;;;;;;;5035138;28;20029;-66
2023/03/26 00:27:37;;;;;;;4.25;3.13;;;;;;;;;;5039301;28;20100;-67
2023/03/26 00:30:03;;;;;;;4.90;3.00;;;;;;;;;;5044307;28;20420;-66
2023/03/26 00:32:29;;;;;;;4.65;3.50;;;;;;;;;;5038731;28;20275;-66
2023/03/26 00:34:54;;;;;;;3.83;2.97;;;;;;;;;;5028434;28;20033;-65
2023/03/26 00:37:25;;;;;;;3.80;2.97;;;;;;;;;;5039516;28;20053;-65
2023/03/26 00:39:58;;;;;;;3.72;3.05;;;;;;;;;;5035864;28;20057;-67
2023/03/26 00:42:23;;;;;;;3.50;2.90;;;;;;;;;;5033031;28;20047;-67
2023/03/26 00:44:53;;;;;;;4.50;3.28;;;;;;;;;;5039394;28;20033;-63
2023/03/26 00:47:19;;;;;;;4.30;3.10;;;;;;;;;;5038769;28;20029;-65
2023/03/26 00:49:45;;;;;;;4.18;3.20;;;;;;;;;;5046642;28;20159;-66
2023/03/26 00:52:11;;;;;;;4.32;3.25;;;;;;;;;;5039310;28;20828;-63
2023/03/26 00:54:36;;;;;;;4.13;3.00;;;;;;;;;;5043983;28;20041;-63
2023/03/26 00:57:01;;;;;;;4.53;3.17;;;;;;;;;;5039337;28;20110;-65
2023/03/26 00:59:29;;;;;;;3.67;2.97;;;;;;;;;;5044678;28;20313;-67
2023/03/26 01:01:57;;;;;;;3.63;2.92;;;;;;;;;;5042408;28;20880;-67
2023/03/26 01:04:33;;;;;;;4.22;3.17;;;;;;;;;;5059201;28;20194;-67
2023/03/26 01:07:00;;;;;;;3.47;2.80;;;;;;;;;;5044748;28;20036;-64
2023/03/26 01:09:31;;;;;;;3.70;3.10;;;;;;;;;;5058640;28;20076;-64
2023/03/26 01:11:56;;;;;;;4.10;2.90;;;;;;;;;;5053255;28;20013;-65
2023/03/26 01:14:22;;;;;;;4.03;3.07;;;;;;;;;;5015279;28;20105;-65
2023/03/26 01:16:48;;;;;;;3.58;2.85;;;;;;;;;;5036330;28;20287;-65
2023/03/26 01:19:22;;;;;;;3.65;2.78;;;;;;;;;;5049250;28;20070;-68
2023/03/26 01:21:48;;;;;;;3.13;2.53;;;;;;;;;;5054889;28;20101;-66
2023/03/26 01:24:13;;;;;;;3.73;3.03;;;;;;;;;;5040218;28;20115;-66
2023/03/26 01:26:47;;;;;;;3.33;2.60;;;;;;;;;;5038869;28;20271;-63
2023/03/26 01:29:36;;;;;;;3.50;2.70;;;;;;;;;;5041149;28;20307;-66
2023/03/26 01:32:01;;;;;;;3.40;2.70;;;;;;;;;;5042559;28;20489;-66
2023/03/26 01:34:34;;;;;;;3.80;2.77;;;;;;;;;;5041798;28;20061;-68
2023/03/26 01:36:59;;;;;;;3.33;2.60;;;;;;;;;;5036692;28;20472;-68
2023/03/26 01:39:25;;;;;;;3.55;2.50;;;;;;;;;;5041532;28;20791;-66
2023/03/26 01:41:50;;;;;;;3.53;2.78;;;;;;;;;;5047159;28;20037;-67
2023/03/26 01:44:20;;;;;;;3.80;2.78;;;;;;;;;;5032758;28;20021;-68
2023/03/26 01:46:45;;;;;;;4.10;2.90;;;;;;;;;;5039312;28;20516;-65
2023/03/26 01:49:12;;;;;;;3.10;2.60;;;;;;;;;;5041376;28;20033;-63
2023/03/26 01:51:37;;;;;;;4.20;2.80;;;;;;;;;;5046859;28;20046;-65
2023/03/26 01:54:03;;;;;;;3.97;2.40;;;;;;;;;;5032411;28;20489;-66
2023/03/26 01:56:28;;;;;;;3.45;2.63;;;;;;;;;;5040552;28;20087;-67
2023/03/26 01:59:26;;;;;;;3.60;2.57;;;;;;;;;;5039239;28;20632;-65
2023/03/26 02:01:58;;;;;;;3.53;2.70;;;;;;;;;;4992266;28;20866;-68
2023/03/26 02:04:25;;;;;;;3.38;2.38;;;;;;;;;;5042786;28;20409;-68
2023/03/26 02:07:10;;;;;;;3.05;2.42;;;;;;;;;;5040723;28;20050;-64
2023/03/26 02:09:37;;;;;;;3.33;2.65;;;;;;;;;;5062036;28;20443;-66
2023/03/26 02:12:03;;;;;;;3.10;2.38;;;;;;;;;;5040496;28;20055;-66
2023/03/26 02:14:29;;;;;;;2.97;2.22;;;;;;;;;;5034936;28;20481;-67
2023/03/26 02:16:55;;;;;;;3.42;2.63;;;;;;;;;;5040870;28;20706;-66
2023/03/26 02:19:23;;;;;;;2.92;2.30;;;;;;;;;;5040178;28;20405;-68
2023/03/26 02:21:50;;;;;;;2.92;2.30;;;;;;;;;;5049331;28;20024;-64
2023/03/26 02:24:15;;;;;;;3.20;2.33;;;;;;;;;;5054470;28;20017;-66
2023/03/26 02:26:41;;;;;;;3.20;2.35;;;;;;;;;;5042729;28;20078;-66
2023/03/26 02:29:06;;;;;;;3.57;2.60;;;;;;;;;;5026393;28;20378;-65
2023/03/26 02:31:31;;;;;;;3.03;2.45;;;;;;;;;;5052449;28;20340;-67
2023/03/26 02:33:56;;;;;;;3.47;2.53;;;;;;;;;;5038640;28;20029;-66
2023/03/26 02:36:26;;;;;;;3.60;2.70;;;;;;;;;;5013494;28;20270;-65
2023/03/26 02:38:51;;;;;;;3.20;2.67;;;;;;;;;;5043814;28;20053;-65
2023/03/26 02:41:16;;;;;;;3.13;2.30;;;;;;;;;;5034936;28;20068;-66
2023/03/26 02:43:41;;;;;;;3.33;2.65;;;;;;;;;;5030437;28;20967;-66
2023/03/26 02:46:07;;;;;;;3.13;2.20;;;;;;;;;;5015925;28;20017;-65
2023/03/26 02:48:33;;;;;;;2.93;2.10;;;;;;;;;;5041223;28;20256;-67
2023/03/26 02:50:59;;;;;;;2.95;2.40;;;;;;;;;;5050507;28;20309;-65
2023/03/26 02:53:29;;;;;;;3.05;2.42;;;;;;;;;;5052832;28;20095;-68
2023/03/26 02:55:55;;;;;;;2.80;2.03;;;;;;;;;;5038231;28;20163;-67
2023/03/26 02:58:20;;;;;;;2.55;2.03;;;;;;;;;;5041450;28;20486;-64
2023/03/26 03:00:46;;;;;;;3.45;2.25;;;;;;;;;;5045292;28;20415;-63
2023/03/26 03:03:15;;;;;;;3.20;2.03;;;;;;;;;;5058809;28;20471;-68
2023/03/26 03:05:42;;;;;;;2.55;2.00;;;;;;;;;;5053667;28;20267;-69
2023/03/26 03:08:07;;;;;;;2.75;2.22;;;;;;;;;;5044747;28;20020;-67
2023/03/26 03:10:32;;;;;;;2.70;2.13;;;;;;;;;;5049550;28;20016;-66
2023/03/26 03:12:58;;;;;;;2.92;2.20;;;;;;;;;;5038974;28;20037;-65
2023/03/26 03:15:23;;;;;;;2.95;2.20;;;;;;;;;;5040552;28;20548;-66
2023/03/26 03:17:48;;;;;;;2.90;1.95;;;;;;;;;;5043273;28;20071;-65
2023/03/26 03:20:14;;;;;;;3.77;2.60;;;;;;;;;;5050750;28;20047;-66
2023/03/26 03:22:40;;;;;;;2.83;2.00;;;;;;;;;;5056065;28;20299;-69
2023/03/26 03:25:07;;;;;;;3.17;2.20;;;;;;;;;;5039614;28;20041;-65
2023/03/26 03:27:33;;;;;;;2.78;2.10;;;;;;;;;;5051641;28;20081;-64
2023/03/26 03:29:58;;;;;;;3.05;2.25;;;;;;;;;;5043618;28;20033;-62
2023/03/26 03:32:24;;;;;;;2.10;1.80;;;;;;;;;;5046208;28;20092;-66
2023/03/26 03:34:49;;;;;;;2.72;2.10;;;;;;;;;;5034284;28;20263;-64
2023/03/26 03:37:15;;;;;;;2.95;2.30;;;;;;;;;;5031920;28;20075;-65
2023/03/26 03:39:40;;;;;;;2.53;1.75;;;;;;;;;;5035846;28;20107;-64
2023/03/26 03:42:06;;;;;;;2.15;1.60;;;;;;;;;;5056500;28;20031;-61
2023/03/26 03:44:31;;;;;;;2.70;1.83;;;;;;;;;;5054978;28;20401;-68
2023/03/26 03:46:56;;;;;;;3.00;2.03;;;;;;;;;;5046701;28;20267;-65
2023/03/26 03:49:21;;;;;;;2.67;2.07;;;;;;;;;;5015133;28;20330;-66
2023/03/26 03:51:47;;;;;;;2.40;2.00;;;;;;;;;;5025516;28;20287;-66
2023/03/26 03:54:12;;;;;;;2.67;1.88;;;;;;;;;;5024140;28;20033;-65
2023/03/26 03:56:37;;;;;;;2.45;1.83;;;;;;;;;;5042031;28;20587;-66
2023/03/26 03:59:03;;;;;;;2.90;2.20;;;;;;;;;;5040051;28;20324;-69
2023/03/26 04:01:29;;;;;;;2.42;1.77;;;;;;;;;;5046417;28;20132;-65
2023/03/26 04:03:54;;;;;;;2.20;1.70;;;;;;;;;;5049278;28;20035;-65
2023/03/26 04:06:20;;;;;;;2.92;1.88;;;;;;;;;;5048269;28;20033;-66
2023/03/26 04:08:45;;;;;;;3.25;1.90;;;;;;;;;;5020308;28;20045;-65
2023/03/26 04:11:11;;;;;;;2.67;1.73;;;;;;;;;;5041673;28;20138;-68
2023/03/26 04:13:36;;;;;;;2.92;2.10;;;;;;;;;;5036977;28;20302;-67
2023/03/26 04:16:01;;;;;;;3.03;1.90;;;;;;;;;;5033989;28;20024;-65
2023/03/26 04:18:28;;;;;;;2.67;1.73;;;;;;;;;;5038447;28;20271;-65
2023/03/26 04:20:54;;;;;;;2.03;1.55;;;;;;;;;;5053110;28;20294;-65
2023/03/26 04:23:19;;;;;;;2.42;1.73;;;;;;;;;;5045767;28;20112;-63
2023/03/26 04:25:54;;;;;;;2.45;1.77;;;;;;;;;;5045371;28;20017;-65
2023/03/26 04:28:29;;;;;;;2.15;1.65;;;;;;;;;;5042133;28;20453;-67
2023/03/26 04:30:55;;;;;;;2.42;1.80;;;;;;;;;;5046540;28;20033;-62
2023/03/26 04:33:21;;;;;;;2.17;1.75;;;;;;;;;;5038550;28;20041;-67
2023/03/26 04:35:47;;;;;;;2.22;1.80;;;;;;;;;;5051128;28;20033;-65
2023/03/26 04:38:15;;;;;;;2.20;1.70;;;;;;;;;;5046184;28;20166;-66
2023/03/26 04:40:41;;;;;;;4.60;2.08;;;;;;;;;;5043031;28;20040;-65
2023/03/26 04:43:07;;;;;;;5.82;2.03;;;;;;;;;;5041048;28;20029;-66
2023/03/26 04:45:32;;;;;;;4.05;1.83;;;;;;;;;;5038104;28;20440;-63
2023/03/26 04:47:58;;;;;;;3.63;1.90;;;;;;;;;;5037854;28;20067;-66
2023/03/26 04:50:23;;;;;;;4.15;2.25;;;;;;;;;;5019550;28;20040;-61
2023/03/26 04:52:49;;;;;;;5.82;2.00;;;;;;;;;;5024766;28;20040;-65
2023/03/26 04:55:23;;;;;;;5.45;2.40;;;;;;;;;;5030882;28;20488;-67
2023/03/26 04:57:49;;;;;;;4.88;2.40;;;;;;;;;;5046058;28;20491;-67
2023/03/26 05:00:18;;;;;;;3.97;2.05;;;;;;;;;;5035897;28;20052;-64
2023/03/26 05:02:44;;;;;;;5.53;2.00;;;;;;;;;;5037431;28;20036;-65
2023/03/26 05:05:10;;;;;;;4.82;2.20;;;;;;;;;;5034474;28;20033;-65
2023/03/26 05:07:35;;;;;;;3.88;1.83;;;;;;;;;;5047031;28;20032;-64
2023/03/26 05:10:03;;;;;;;3.42;1.90;;;;;;;;;;5044594;28;20128;-65
2023/03/26 05:12:29;;;;;;;5.25;2.00;;;;;;;;;;5037374;28;20036;-66
2023/03/26 05:14:54;;;;;;;3.92;2.10;;;;;;;;;;5043174;28;20033;-62
2023/03/26 05:17:20;;;;;;;3.95;1.80;;;;;;;;;;5041825;28;20048;-65
2023/03/26 05:19:45;;;;;;;2.63;1.80;;;;;;;;;;5043818;28;20069;-69
2023/03/26 05:22:11;;;;;;;3.67;1.80;;;;;;;;;;5038104;28;20052;-66
2023/03/26 05:24:36;;;;;;;3.17;1.63;;;;;;;;;;5039535;28;20037;-64
2023/03/26 05:27:01;;;;;;;3.23;2.07;;;;;;;;;;5049815;28;20279;-66
2023/03/26 05:29:26;;;;;;;4.93;1.95;;;;;;;;;;5037599;28;20276;-64
2023/03/26 05:31:52;;;;;;;3.13;1.70;;;;;;;;;;5011727;28;20457;-64
2023/03/26 05:34:18;;;;;;;2.60;1.80;;;;;;;;;;5023349;28;21999;-64
2023/03/26 05:36:43;;;;;;;3.58;1.83;;;;;;;;;;5043028;28;20307;-68
2023/03/26 05:39:09;;;;;;;3.67;1.80;;;;;;;;;;5046530;28;20072;-64
2023/03/26 05:41:34;;;;;;;2.73;1.70;;;;;;;;;;5042943;28;20788;-66
2023/03/26 05:43:59;;;;;;;3.15;1.83;;;;;;;;;;5042642;28;20715;-64
2023/03/26 05:46:25;;;;;;;3.33;1.90;;;;;;;;;;5044514;28;20033;-65
2023/03/26 05:48:51;;;;;;;3.53;1.90;;;;;;;;;;5063177;28;20518;-67
2023/03/26 05:51:16;;;;;;;3.28;1.92;;;;;;;;;;5031929;28;20040;-67
2023/03/26 05:53:42;;;;;;;4.72;1.95;;;;;;;;;;5041444;28;20037;-66
2023/03/26 05:56:07;;;;;;;3.88;1.83;;;;;;;;;;5031635;28;20485;-65
2023/03/26 05:58:33;;;;;;;2.88;1.60;;;;;;;;;;5044737;28;20492;-64
2023/03/26 06:01:04;;;;;;;4.50;1.70;;;;;;;;;;5043276;28;20040;-66
2023/03/26 06:03:30;;;;;;;2.97;1.88;;;;;;;;;;5039112;28;20056;-68
2023/03/26 06:05:55;;;;;;;4.05;1.90;;;;;;;;;;5050947;28;20751;-65
2023/03/26 06:08:20;;;;;;;2.67;1.80;;;;;;;;;;5041487;28;20520;-63
2023/03/26 06:10:46;;;;;;;2.75;1.70;;;;;;;;;;5046124;28;20024;-63
2023/03/26 06:13:12;;;;;;;2.10;1.50;;;;;;;;;;5045269;28;20120;-62
2023/03/26 06:15:37;;;;;;;2.22;1.65;;;;;;;;;;5046461;28;20607;-64
2023/03/26 06:18:03;;;;;;;2.57;1.60;;;;;;;;;;5053550;28;20041;-64
2023/03/26 06:20:28;;;;;;;2.35;1.60;;;;;;;;;;5050194;28;20780;-64
2023/03/26 06:22:53;;;;;;;1.88;1.40;;;;;;;;;;5047717;28;20032;-65
2023/03/26 06:25:18;;;;;;;4.43;1.70;;;;;;;;;;5035329;28;20031;-63
2023/03/26 06:27:44;;;;;;;3.10;2.05;;;;;;;;;;5052021;28;20411;-66
2023/03/26 06:30:09;;;;;;;3.10;1.60;;;;;;;;;;5046430;28;20024;-64
2023/03/26 06:32:35;;;;;;;3.08;1.80;;;;;;;;;;5042809;28;20039;-65
2023/03/26 06:35:00;;;;;;;3.70;1.70;;;;;;;;;;5056445;28;20104;-64
2023/03/26 06:37:25;;;;;;;3.63;1.88;;;;;;;;;;5024438;28;20829;-68
2023/03/26 06:39:50;;;;;;;2.60;1.77;;;;;;;;;;5044130;28;20049;-66
2023/03/26 06:42:16;;;;;;;3.00;1.97;;;;;;;;;;5049846;28;20287;-66
2023/03/26 06:44:41;;;;;;;3.03;1.80;;;;;;;;;;5049153;28;20361;-67
2023/03/26 06:47:06;;;;;;;2.53;1.85;;;;;;;;;;5029581;28;20341;-69
2023/03/26 06:49:33;;;;;;;2.67;1.70;;;;;;;;;;5048126;28;20446;-68
2023/03/26 06:51:58;;;;;;;4.75;1.80;;;;;;;;;;5054400;28;20480;-65
2023/03/26 06:54:23;;;;;;;3.13;1.80;;;;;;;;;;5058095;28;20060;-67
2023/03/26 06:56:49;;;;;;;3.07;1.80;;;;;;;;;;5045519;28;20056;-65
2023/03/26 06:59:14;;;;;;;2.13;1.70;;;;;;;;;;5034437;28;20283;-69
2023/03/26 07:01:39;;;;;;;2.67;1.63;;;;;;;;;;5042901;28;20528;-70
2023/03/26 07:04:04;;;;;;;3.42;1.67;;;;;;;;;;5049633;28;20279;-68
2023/03/26 07:06:30;;;;;;;2.80;1.73;;;;;;;;;;5039753;28;20032;-69
2023/03/26 07:08:56;;;;;;;3.53;1.90;;;;;;;;;;5047574;28;20271;-67
2023/03/26 07:11:24;;;;;;;4.07;1.85;;;;;;;;;;5053458;28;20032;-65
2023/03/26 07:13:49;;;;;;;3.45;1.92;;;;;;;;;;5045046;28;20550;-68
2023/03/26 07:16:15;;;;;;;2.90;1.80;;;;;;;;;;5036359;28;20053;-70
2023/03/26 07:18:40;;;;;;;3.83;1.70;;;;;;;;;;5042306;28;20035;-66
2023/03/26 07:21:06;;;;;;;3.05;1.98;;;;;;;;;;5055233;28;20139;-67
2023/03/26 07:23:31;;;;;;;3.03;1.83;;;;;;;;;;5050126;28;20480;-67
2023/03/26 07:25:57;;;;;;;3.20;1.80;;;;;;;;;;5051250;28;20032;-68
2023/03/26 07:28:24;;;;;;;4.25;2.22;;;;;;;;;;5058152;28;20548;-67
2023/03/26 07:30:49;;;;;;;3.33;1.77;;;;;;;;;;5047562;28;20025;-65
2023/03/26 07:33:21;;;;;;;3.08;1.80;;;;;;;;;;5048758;28;20431;-65
2023/03/26 07:35:52;;;;;;;2.85;1.60;;;;;;;;;;5038850;28;20032;-67
2023/03/26 07:38:26;;;;;;;3.00;1.70;;;;;;;;;;5038329;28;20169;-63
2023/03/26 07:40:54;;;;;;;3.10;1.88;;;;;;;;;;5041944;28;20063;-66
2023/03/26 07:43:28;;;;;;;3.40;2.03;;;;;;;;;;5024179;28;20029;-65
2023/03/26 07:45:54;;;;;;;4.15;2.03;;;;;;;;;;5043964;28;20036;-71
2023/03/26 07:48:20;;;;;;;3.05;1.67;;;;;;;;;;5045424;28;20059;-66
2023/03/26 07:50:46;;;;;;;2.97;1.92;;;;;;;;;;5050332;28;20024;-66
2023/03/26 07:53:11;;;;;;;3.25;2.00;;;;;;;;;;5048760;28;20396;-67
2023/03/26 07:55:44;;;;;;;3.05;2.10;;;;;;;;;;5040114;28;20033;-67
2023/03/26 07:58:24;;;;;;;2.78;1.95;;;;;;;;;;5032552;28;20123;-69
2023/03/26 08:00:56;;;;;;;3.35;2.00;;;;;;;;;;5044659;28;20474;-63
2023/03/26 08:03:41;;;;;;;3.05;1.85;;;;;;;;;;5035915;28;20170;-67
2023/03/26 08:06:15;;;;;;;3.00;1.88;;;;;;;;;;5047755;28;20130;-68
2023/03/26 08:08:40;;;;;;;3.55;2.00;;;;;;;;;;5041410;28;20132;-67
2023/03/26 08:11:08;;;;;;;2.33;2.00;;;;;;;;;;5049931;28;20460;-67
2023/03/26 08:13:33;;;;;;;3.80;2.15;;;;;;;;;;5058164;28;20111;-67
2023/03/26 08:16:06;;;;;;;2.70;1.92;;;;;;;;;;5048590;28;20128;-65
2023/03/26 08:18:51;;;;;;;2.25;2.00;;;;;;;;;;5041753;28;20077;-67
2023/03/26 08:21:18;;;;;;;3.60;2.05;;;;;;;;;;5048918;28;20064;-67
2023/03/26 08:23:53;;;;;;;3.97;2.20;;;;;;;;;;5039449;28;20393;-65
2023/03/26 08:26:28;;;;;;;3.90;1.95;;;;;;;;;;5040278;28;20414;-65
2023/03/26 08:29:17;;;;;;;3.40;1.95;;;;;;;;;;5046096;28;20052;-65
2023/03/26 08:31:42;;;;;;;2.95;1.90;;;;;;;;;;5039615;28;20035;-66
2023/03/26 08:34:11;;;;;;;3.28;2.20;;;;;;;;;;5062760;28;20522;-68
2023/03/26 08:36:36;;;;;;;2.72;1.90;;;;;;;;;;5022744;28;20428;-65
2023/03/26 08:39:01;;;;;;;3.73;2.30;;;;;;;;;;5045393;28;20074;-67
2023/03/26 08:41:32;;;;;;;2.80;1.98;;;;;;;;;;5034333;28;20386;-66
2023/03/26 08:44:16;;;;;;;2.60;2.20;;;;;;;;;;5032755;28;20037;-67
2023/03/26 08:46:54;;;;;;;4.32;2.30;;;;;;;;;;5041821;28;20032;-68
2023/03/26 08:49:31;;;;;;;2.60;2.03;;;;;;;;;;5045044;28;20045;-68
2023/03/26 08:52:11;;;;;;;3.35;2.20;;;;;;;;;;5043320;28;20118;-69
2023/03/26 08:54:41;;;;;;;3.50;2.28;;;;;;;;;;5032079;28;20110;-68
2023/03/26 08:57:07;;;;;;;;;;;;;;;;;;5031985;28;20516;-66
2023/03/26 08:59:55;;;;;;;3.58;2.28;;;;;;;;;;5055188;28;19921;-66
2023/03/26 09:02:26;;;;;;;2.88;2.00;;;;;;;;;;5051414;28;20075;-66
2023/03/26 09:05:12;;;;;;;3.65;2.25;;;;;;;;;;5056440;28;20045;-66
2023/03/26 09:07:46;;;;;;;2.85;2.20;;;;;;;;;;5028913;28;20115;-67
2023/03/26 09:10:20;;;;;;;3.50;2.03;;;;;;;;;;5045232;28;20046;-72
2023/03/26 09:12:54;;;;;;;3.20;2.47;;;;;;;;;;5059517;28;20051;-67
2023/03/26 09:15:22;;;;;;;2.92;2.15;;;;;;;;;;5044568;28;20032;-68
2023/03/26 09:18:06;;;;;;;2.90;2.20;;;;;;;;;;5057170;28;20043;-67
2023/03/26 09:20:50;;;;;;;3.63;2.30;;;;;;;;;;5038425;28;20485;-68
2023/03/26 09:23:38;;;;;;;3.83;1.80;;;;;;;;;;5058289;28;20028;-66
2023/03/26 09:26:03;;;;;;;3.42;2.10;;;;;;;;;;5007003;28;20123;-67
2023/03/26 09:28:35;;;;;;;3.40;2.10;;;;;;;;;;5045490;28;20101;-66
2023/03/26 09:31:19;;;;;;;5.15;2.13;;;;;;;;;;5055693;28;20267;-69
2023/03/26 09:34:03;;;;;;;3.95;2.40;;;;;;;;;;5054379;28;20031;-69
2023/03/26 09:36:37;;;;;;;4.93;2.38;;;;;;;;;;5045457;28;20039;-69
2023/03/26 09:39:21;;;;;;;3.00;2.08;;;;;;;;;;5045037;28;20047;-64
2023/03/26 09:42:16;;;;;;;15.88;5.70;;;;;;;;;;5044755;28;20048;-65
2023/03/26 09:44:51;;;;;;;13.98;4.82;;;;;;;;;;5021954;28;20041;-66
2023/03/26 09:47:21;;;;;;;18.98;6.35;;;;;;;;;;5030391;28;20048;-67
2023/03/26 09:50:05;;;;;;;11.55;4.68;;;;;;;;;;5052297;28;20119;-64
2023/03/26 09:52:39;;;;;;;10.20;4.38;;;;;;;;;;5042385;28;20036;-64
2023/03/26 09:55:07;;;;;;;9.10;3.10;;;;;;;;;;5040671;28;20064;-65
2023/03/26 09:57:52;;;;;;;8.50;3.20;;;;;;;;;;5046792;28;20025;-68
2023/03/26 10:00:24;;;;;;;5.78;2.40;;;;;;;;;;5050921;28;20091;-68
2023/03/26 10:02:49;;;;;;;7.35;2.70;;;;;;;;;;5048108;28;20032;-69
2023/03/26 10:05:21;;;;;;;4.80;2.10;;;;;;;;;;5034431;28;20051;-68
2023/03/26 10:07:49;;;;;;;3.55;1.95;;;;;;;;;;5046805;28;20044;-66
2023/03/26 10:10:20;;;;;;;3.72;1.73;;;;;;;;;;5055504;28;20055;-65
2023/03/26 10:12:49;;;;;;;1.73;1.20;;;;;;;;;;5046413;28;20157;-66
2023/03/26 10:15:33;;;;;;;3.13;1.20;;;;;;;;;;5041925;28;20116;-64
2023/03/26 10:18:07;;;;;;;2.88;1.40;;;;;;;;;;5043829;28;20049;-64
2023/03/26 10:20:35;;;;;;;1.95;1.15;;;;;;;;;;5043023;28;20028;-65
2023/03/26 10:23:00;;;;;;;2.13;1.10;;;;;;;;;;5053632;28;20041;-64
2023/03/26 10:25:28;;;;;;;1.50;1.00;;;;;;;;;;5051080;28;20036;-66
2023/03/26 10:27:56;;;;;;;2.70;1.17;;;;;;;;;;5061420;28;20371;-65
2023/03/26 10:30:25;;;;;;;2.38;1.17;;;;;;;;;;5061154;28;20387;-65
2023/03/26 10:32:53;;;;;;;2.83;1.30;;;;;;;;;;5038321;28;20228;-66
2023/03/26 10:35:18;;;;;;;2.17;1.00;;;;;;;;;;5047938;28;20800;-65
2023/03/26 10:37:46;;;;;;;2.00;0.90;;;;;;;;;;5036422;28;20079;-67
2023/03/26 10:40:16;;;;;;;1.90;0.80;;;;;;;;;;5038866;28;20056;-67
2023/03/26 10:42:57;;;;;;;1.75;0.80;;;;;;;;;;5021936;28;20658;-66
2023/03/26 10:45:35;;;;;;;1.92;0.70;;;;;;;;;;5040897;28;20052;-69
2023/03/26 10:48:05;;;;;;;1.50;0.70;;;;;;;;;;5026010;28;20036;-66
2023/03/26 10:50:30;;;;;;;;;;;;;;;;;;5034773;28;20041;-67
2023/03/26 10:53:02;;;;;;;1.65;0.65;;;;;;;;;;5040157;28;19919;-67
2023/03/26 10:55:30;;;;;;;1.65;0.80;;;;;;;;;;5035739;28;20051;-67
2023/03/26 10:58:02;;;;;;;1.67;0.75;;;;;;;;;;5045629;28;20045;-70
2023/03/26 11:00:27;;;;;;;2.72;0.75;;;;;;;;;;5041343;28;20055;-69
2023/03/26 11:02:53;;;;;;;1.20;0.73;;;;;;;;;;5043557;28;20621;-67
2023/03/26 11:05:21;;;;;;;1.27;0.90;;;;;;;;;;5045685;28;20040;-66
2023/03/26 11:07:55;;;;;;;2.65;1.08;;;;;;;;;;5047781;28;20425;-69
2023/03/26 11:10:28;;;;;;;1.73;0.50;;;;;;;;;;5051427;28;20370;-65
2023/03/26 11:13:23;;;;;;;1.63;0.70;;;;;;;;;;5029598;28;20045;-65
2023/03/26 11:16:08;;;;;;;1.48;0.60;;;;;;;;;;4982550;28;20050;-67
2023/03/26 11:18:52;;;;;;;1.13;0.52;;;;;;;;;;5039609;28;20343;-71
2023/03/26 11:21:25;;;;;;;1.20;0.50;;;;;;;;;;5034493;28;20079;-68
2023/03/26 11:24:00;;;;;;;1.10;0.60;;;;;;;;;;5043332;28;20044;-69
2023/03/26 11:26:33;;;;;;;1.25;0.50;;;;;;;;;;5038844;28;20090;-69
2023/03/26 11:29:17;;;;;;;1.15;0.70;;;;;;;;;;5042991;28;20041;-65
2023/03/26 11:31:54;;;;;;;1.33;0.60;;;;;;;;;;5039870;28;20067;-67
2023/03/26 11:34:21;;;;;;;1.70;0.80;;;;;;;;;;5039341;28;20545;-65
2023/03/26 11:36:47;;;;;;;1.27;0.77;;;;;;;;;;5032888;28;20472;-66
2023/03/26 11:39:14;;;;;;;2.03;0.88;;;;;;;;;;5059032;28;20100;-68
2023/03/26 11:41:39;;;;;;;1.67;0.68;;;;;;;;;;5041233;28;20045;-70
2023/03/26 11:44:07;;;;;;;2.10;0.77;;;;;;;;;;5053710;28;20426;-70
2023/03/26 11:46:34;;;;;;;1.65;0.85;;;;;;;;;;5052389;28;20288;-65
2023/03/26 11:49:00;;;;;;;1.63;0.60;;;;;;;;;;5041452;28;20033;-68
2023/03/26 11:51:30;;;;;;;1.15;0.60;;;;;;;;;;5044096;28;20071;-66
2023/03/26 11:53:56;;;;;;;1.60;0.50;;;;;;;;;;5054785;28;20036;-68
2023/03/26 11:56:27;;;;;;;1.00;0.52;;;;;;;;;;5031329;28;20468;-66
2023/03/26 11:58:53;;;;;;;1.17;0.60;;;;;;;;;;5041714;28;20072;-65
2023/03/26 12:01:21;;;;;;;1.35;0.75;;;;;;;;;;5020705;28;20098;-67
2023/03/26 12:03:57;;;;;;;1.25;0.75;;;;;;;;;;5054901;28;20094;-66
2023/03/26 12:06:24;;;;;;;1.23;0.60;;;;;;;;;;5054791;28;20128;-69
2023/03/26 12:08:49;;;;;;;1.90;0.70;;;;;;;;;;5051411;28;20036;-66
2023/03/26 12:11:15;;;;;;;1.20;0.50;;;;;;;;;;5038941;28;20051;-66
2023/03/26 12:13:44;;;;;;;1.55;0.52;;;;;;;;;;5046668;28;20563;-66
2023/03/26 12:16:14;;;;;;;1.00;0.53;;;;;;;;;;5048251;28;20288;-67
2023/03/26 12:18:40;;;;;;;1.05;0.60;;;;;;;;;;5047954;28;20123;-68
2023/03/26 12:21:08;;;;;;;1.85;0.57;;;;;;;;;;5045308;28;20037;-69
2023/03/26 12:23:35;;;;;;;2.13;0.82;;;;;;;;;;5042567;28;20108;-64
2023/03/26 12:26:10;;;;;;;1.13;0.60;;;;;;;;;;5045361;28;20094;-65
2023/03/26 12:28:35;;;;;;;1.35;0.75;;;;;;;;;;5040150;28;20020;-67
2023/03/26 12:31:01;;;;;;;1.00;0.40;;;;;;;;;;5050667;28;20039;-66
2023/03/26 12:33:27;;;;;;;2.20;0.60;;;;;;;;;;5041005;28;20511;-64
2023/03/26 12:35:53;;;;;;;0.85;0.40;;;;;;;;;;5042422;28;20230;-67
2023/03/26 12:38:34;;;;;;;2.08;0.80;;;;;;;;;;5018863;28;20502;-69
2023/03/26 12:41:06;;;;;;;1.20;0.50;;;;;;;;;;5046629;28;20049;-68
2023/03/26 12:43:37;;;;;;;1.15;0.57;;;;;;;;;;5046315;28;20565;-67
2023/03/26 12:46:02;;;;;;;1.13;0.57;;;;;;;;;;5027943;28;20051;-68
2023/03/26 12:48:28;;;;;;;0.90;0.50;;;;;;;;;;5044007;28;20033;-67
2023/03/26 12:51:11;;;;;;;1.23;0.50;;;;;;;;;;5039843;28;20156;-66
2023/03/26 12:53:52;;;;;;;1.00;0.60;;;;;;;;;;5036107;28;20072;-67
2023/03/26 12:56:26;;;;;;;1.02;0.40;;;;;;;;;;5041033;28;20139;-67
2023/03/26 12:59:00;;;;;;;0.82;0.35;;;;;;;;;;5054963;28;20040;-67
2023/03/26 13:01:32;;;;;;;1.30;0.50;;;;;;;;;;5048797;28;20057;-68
2023/03/26 13:04:07;;;;;;;1.00;0.40;;;;;;;;;;5055633;28;20039;-67
2023/03/26 13:06:36;;;;;;;1.50;0.50;;;;;;;;;;5050872;28;20445;-66
2023/03/26 13:09:05;;;;;;;1.10;0.52;;;;;;;;;;5044202;28;20052;-67
2023/03/26 13:11:46;;;;;;;1.35;0.40;;;;;;;;;;5038093;28;20049;-67
2023/03/26 13:14:14;;;;;;;0.52;0.32;;;;;;;;;;5048822;28;20044;-65
2023/03/26 13:16:51;;;;;;;1.25;0.50;;;;;;;;;;5040589;28;20590;-67
2023/03/26 13:19:38;;;;;;;0.80;0.30;;;;;;;;;;5048099;28;20044;-66
2023/03/26 13:22:15;;;;;;;0.98;0.40;;;;;;;;;;5036981;28;20055;-67
2023/03/26 13:24:40;;;;;;;0.93;0.40;;;;;;;;;;5049096;28;20158;-68
2023/03/26 13:27:25;;;;;;;1.10;0.47;;;;;;;;;;5055322;28;20511;-68
2023/03/26 13:30:05;;;;;;;1.10;0.32;;;;;;;;;;5028486;28;20037;-67
2023/03/26 13:32:56;;;;;;;1.75;0.60;;;;;;;;;;5039180;28;20041;-68
2023/03/26 13:35:23;;;;;;;1.60;0.40;;;;;;;;;;5047355;28;20063;-65
2023/03/26 13:37:51;;;;;;;3.63;0.63;;;;;;;;;;5036434;28;20095;-67
2023/03/26 13:40:16;;;;;;;1.50;0.40;;;;;;;;;;5041454;28;20556;-67
2023/03/26 13:42:41;;;;;;;0.80;0.30;;;;;;;;;;5037877;28;20144;-65
2023/03/26 13:45:07;;;;;;;1.87;0.40;;;;;;;;;;5058188;28;20045;-68
2023/03/26 13:47:33;;;;;;;0.57;0.40;;;;;;;;;;5042424;28;20299;-67
2023/03/26 13:49:58;;;;;;;1.88;0.30;;;;;;;;;;5054664;28;20037;-68
2023/03/26 13:52:23;;;;;;;0.87;0.40;;;;;;;;;;5041180;28;20040;-68
2023/03/26 13:54:51;;;;;;;1.90;0.47;;;;;;;;;;5055899;28;20037;-68
2023/03/26 13:57:27;;;;;;;0.68;0.52;;;;;;;;;;5041997;28;20130;-68
2023/03/26 14:00:05;;;;;;;1.10;0.50;;;;;;;;;;5049025;28;20048;-69
2023/03/26 14:02:36;;;;;;;0.95;0.50;;;;;;;;;;5044437;28;20072;-67
2023/03/26 14:05:21;;;;;;;1.38;0.32;;;;;;;;;;5053114;28;20049;-68
2023/03/26 14:07:52;;;;;;;0.77;0.40;;;;;;;;;;5030871;28;20044;-70
2023/03/26 14:10:18;;;;;;;1.33;0.40;;;;;;;;;;5025633;28;20127;-67
2023/03/26 14:12:55;;;;;;;0.90;0.43;;;;;;;;;;5029714;28;20037;-67
2023/03/26 14:15:20;;;;;;;0.57;0.30;;;;;;;;;;5044114;28;20153;-64
2023/03/26 14:17:50;;;;;;;0.50;0.30;;;;;;;;;;5046237;28;20091;-68
2023/03/26 14:20:21;;;;;;;1.83;0.60;;;;;;;;;;5040720;28;20307;-68
2023/03/26 14:22:59;;;;;;;2.47;0.40;;;;;;;;;;5034529;28;20056;-68
2023/03/26 14:25:25;;;;;;;1.20;0.50;;;;;;;;;;5042268;28;20095;-67
2023/03/26 14:28:00;;;;;;;1.70;0.55;;;;;;;;;;5036647;28;20029;-66
2023/03/26 14:30:44;;;;;;;1.55;0.50;;;;;;;;;;5031086;28;21284;-66
2023/03/26 14:33:10;;;;;;;1.75;0.40;;;;;;;;;;5053888;28;20041;-68
2023/03/26 14:35:36;;;;;;;2.53;0.53;;;;;;;;;;5048640;28;20578;-66
2023/03/26 14:38:18;;;;;;;1.45;0.30;;;;;;;;;;5060124;28;20299;-69
2023/03/26 14:41:02;;;;;;;0.82;0.32;;;;;;;;;;5039368;28;20414;-68
2023/03/26 14:43:46;;;;;;;0.70;0.50;;;;;;;;;;5046396;28;20033;-68
2023/03/26 14:46:14;;;;;;;2.10;0.40;;;;;;;;;;5040585;28;20414;-69
2023/03/26 14:48:39;;;;;;;1.38;0.50;;;;;;;;;;5061832;28;20024;-70
2023/03/26 14:51:14;;;;;;;1.60;0.57;;;;;;;;;;5043103;28;20017;-68
2023/03/26 14:54:02;;;;;;;1.90;0.70;;;;;;;;;;5051003;28;20060;-68
2023/03/26 14:56:40;;;;;;;1.23;0.40;;;;;;;;;;5033807;28;20405;-68